sensor_id;sensor_type;location;lat;lon;timestamp;P1;durP1;ratioP1;P2;durP2;ratioP2
82304;SDS011;71914;47.382;8.168;2023-09-07T00:01:53;7.40;;;4.78;;
82304;SDS011;71914;47.382;8.168;2023-09-07T00:04:20;6.93;;;4.97;;
82304;SDS011;71914;47.382;8.168;2023-09-07T00:06:47;5.80;;;5.05;;
82304;SDS011;71914;47.382;8.168;2023-09-07T00:09:17;11.88;;;5.18;;
82304;SDS011;71914;47.382;8.168;2023-09-07T00:11:47;6.45;;;4.55;;
82304;SDS011;71914;47.382;8.168;2023-09-07T00:14:15;7.57;;;4.82;;
82304;SDS011;71914;47.382;8.168;2023-09-07T00:16:41;6.55;;;4.78;;
82304;SDS011;71914;47.382;8.168;2023-09-07T00:19:07;6.13;;;5.10;;
82304;SDS011;71914;47.382;8.168;2023-09-07T00:21:34;5.47;;;4.43;;
82304;SDS011;71914;47.382;8.168;2023-09-07T00:24:00;7.60;;;5.22;;
82304;SDS011;71914;47.382;8.168;2023-09-07T00:26:30;6.40;;;4.30;;
82304;SDS011;71914;47.382;8.168;2023-09-07T00:28:56;6.53;;;4.57;;
82304;SDS011;71914;47.382;8.168;2023-09-07T00:31:21;5.60;;;4.30;;
82304;SDS011;71914;47.382;8.168;2023-09-07T00:33:47;5.88;;;4.30;;
82304;SDS011;71914;47.382;8.168;2023-09-07T00:36:12;7.97;;;5.18;;
82304;SDS011;71914;47.382;8.168;2023-09-07T00:38:39;5.78;;;4.80;;
82304;SDS011;71914;47.382;8.168;2023-09-07T00:41:06;7.50;;;4.68;;
82304;SDS011;71914;47.382;8.168;2023-09-07T00:43:34;6.28;;;4.40;;
82304;SDS011;71914;47.382;8.168;2023-09-07T00:45:59;7.90;;;5.03;;
82304;SDS011;71914;47.382;8.168;2023-09-07T00:48:25;7.88;;;5.30;;
82304;SDS011;71914;47.382;8.168;2023-09-07T00:50:51;7.13;;;5.03;;
82304;SDS011;71914;47.382;8.168;2023-09-07T00:53:17;8.75;;;4.97;;
82304;SDS011;71914;47.382;8.168;2023-09-07T00:55:45;10.10;;;4.93;;
82304;SDS011;71914;47.382;8.168;2023-09-07T00:58:11;6.30;;;5.00;;
82304;SDS011;71914;47.382;8.168;2023-09-07T01:00:37;7.63;;;4.80;;
82304;SDS011;71914;47.382;8.168;2023-09-07T01:03:03;7.75;;;5.05;;
82304;SDS011;71914;47.382;8.168;2023-09-07T01:05:30;7.18;;;5.10;;
82304;SDS011;71914;47.382;8.168;2023-09-07T01:08:01;5.85;;;4.60;;
82304;SDS011;71914;47.382;8.168;2023-09-07T01:10:32;6.57;;;4.53;;
82304;SDS011;71914;47.382;8.168;2023-09-07T01:12:59;10.00;;;5.30;;
82304;SDS011;71914;47.382;8.168;2023-09-07T01:15:25;8.13;;;4.97;;
82304;SDS011;71914;47.382;8.168;2023-09-07T01:17:51;8.60;;;5.40;;
82304;SDS011;71914;47.382;8.168;2023-09-07T01:20:17;8.63;;;5.03;;
82304;SDS011;71914;47.382;8.168;2023-09-07T01:22:45;6.88;;;5.00;;
82304;SDS011;71914;47.382;8.168;2023-09-07T01:25:12;6.78;;;4.68;;
82304;SDS011;71914;47.382;8.168;2023-09-07T01:27:38;6.38;;;4.60;;
82304;SDS011;71914;47.382;8.168;2023-09-07T01:30:05;5.85;;;3.78;;
82304;SDS011;71914;47.382;8.168;2023-09-07T01:32:31;6.47;;;4.53;;
82304;SDS011;71914;47.382;8.168;2023-09-07T01:34:57;6.20;;;4.57;;
82304;SDS011;71914;47.382;8.168;2023-09-07T01:37:24;6.50;;;4.18;;
82304;SDS011;71914;47.382;8.168;2023-09-07T01:39:51;5.70;;;4.68;;
82304;SDS011;71914;47.382;8.168;2023-09-07T01:42:16;6.32;;;4.43;;
82304;SDS011;71914;47.382;8.168;2023-09-07T01:44:46;5.22;;;4.72;;
82304;SDS011;71914;47.382;8.168;2023-09-07T01:47:15;7.05;;;5.18;;
82304;SDS011;71914;47.382;8.168;2023-09-07T01:49:44;6.85;;;4.95;;
82304;SDS011;71914;47.382;8.168;2023-09-07T01:52:10;6.88;;;5.20;;
82304;SDS011;71914;47.382;8.168;2023-09-07T01:54:35;7.22;;;4.97;;
82304;SDS011;71914;47.382;8.168;2023-09-07T01:57:02;6.90;;;5.28;;
82304;SDS011;71914;47.382;8.168;2023-09-07T01:59:27;7.07;;;4.72;;
82304;SDS011;71914;47.382;8.168;2023-09-07T02:01:53;10.40;;;5.25;;
82304;SDS011;71914;47.382;8.168;2023-09-07T02:04:18;7.85;;;5.60;;
82304;SDS011;71914;47.382;8.168;2023-09-07T02:06:44;8.13;;;5.05;;
82304;SDS011;71914;47.382;8.168;2023-09-07T02:09:09;6.85;;;4.80;;
82304;SDS011;71914;47.382;8.168;2023-09-07T02:11:35;6.72;;;4.25;;
82304;SDS011;71914;47.382;8.168;2023-09-07T02:14:02;6.65;;;4.65;;
82304;SDS011;71914;47.382;8.168;2023-09-07T02:16:30;4.95;;;4.15;;
82304;SDS011;71914;47.382;8.168;2023-09-07T02:19:00;9.80;;;5.07;;
82304;SDS011;71914;47.382;8.168;2023-09-07T02:21:26;8.02;;;5.57;;
82304;SDS011;71914;47.382;8.168;2023-09-07T02:23:51;9.70;;;4.57;;
82304;SDS011;71914;47.382;8.168;2023-09-07T02:26:17;7.05;;;4.63;;
82304;SDS011;71914;47.382;8.168;2023-09-07T02:28:43;5.68;;;4.35;;
82304;SDS011;71914;47.382;8.168;2023-09-07T02:31:10;7.93;;;4.63;;
82304;SDS011;71914;47.382;8.168;2023-09-07T02:33:36;6.90;;;4.38;;
82304;SDS011;71914;47.382;8.168;2023-09-07T02:36:02;6.43;;;4.38;;
82304;SDS011;71914;47.382;8.168;2023-09-07T02:38:28;7.55;;;4.20;;
82304;SDS011;71914;47.382;8.168;2023-09-07T02:40:54;5.82;;;4.47;;
82304;SDS011;71914;47.382;8.168;2023-09-07T02:43:22;6.35;;;4.57;;
82304;SDS011;71914;47.382;8.168;2023-09-07T02:45:48;6.68;;;4.82;;
82304;SDS011;71914;47.382;8.168;2023-09-07T02:48:15;6.18;;;4.72;;
82304;SDS011;71914;47.382;8.168;2023-09-07T02:50:41;8.45;;;5.20;;
82304;SDS011;71914;47.382;8.168;2023-09-07T02:53:07;5.22;;;4.25;;
82304;SDS011;71914;47.382;8.168;2023-09-07T02:55:33;5.85;;;4.43;;
82304;SDS011;71914;47.382;8.168;2023-09-07T02:58:01;6.47;;;4.40;;
82304;SDS011;71914;47.382;8.168;2023-09-07T03:00:28;9.77;;;4.95;;
82304;SDS011;71914;47.382;8.168;2023-09-07T03:02:53;6.30;;;4.60;;
82304;SDS011;71914;47.382;8.168;2023-09-07T03:05:20;6.75;;;4.63;;
82304;SDS011;71914;47.382;8.168;2023-09-07T03:07:46;7.50;;;4.82;;
82304;SDS011;71914;47.382;8.168;2023-09-07T03:10:12;7.80;;;4.88;;
82304;SDS011;71914;47.382;8.168;2023-09-07T03:12:38;6.18;;;4.78;;
82304;SDS011;71914;47.382;8.168;2023-09-07T03:15:04;6.47;;;4.32;;
82304;SDS011;71914;47.382;8.168;2023-09-07T03:19:55;7.18;;;4.40;;
82304;SDS011;71914;47.382;8.168;2023-09-07T03:22:23;7.72;;;5.00;;
82304;SDS011;71914;47.382;8.168;2023-09-07T03:24:49;7.05;;;3.97;;
82304;SDS011;71914;47.382;8.168;2023-09-07T03:27:15;7.63;;;4.70;;
82304;SDS011;71914;47.382;8.168;2023-09-07T03:29:41;5.35;;;4.18;;
82304;SDS011;71914;47.382;8.168;2023-09-07T03:32:06;9.25;;;4.68;;
82304;SDS011;71914;47.382;8.168;2023-09-07T03:34:33;6.95;;;4.45;;
82304;SDS011;71914;47.382;8.168;2023-09-07T03:36:59;6.80;;;4.50;;
82304;SDS011;71914;47.382;8.168;2023-09-07T03:39:26;5.53;;;4.55;;
82304;SDS011;71914;47.382;8.168;2023-09-07T03:41:52;7.78;;;5.00;;
82304;SDS011;71914;47.382;8.168;2023-09-07T03:44:18;6.22;;;4.70;;
82304;SDS011;71914;47.382;8.168;2023-09-07T03:46:43;9.48;;;6.13;;
82304;SDS011;71914;47.382;8.168;2023-09-07T03:49:09;8.85;;;5.18;;
82304;SDS011;71914;47.382;8.168;2023-09-07T03:51:34;6.82;;;5.43;;
82304;SDS011;71914;47.382;8.168;2023-09-07T03:53:59;7.82;;;4.60;;
82304;SDS011;71914;47.382;8.168;2023-09-07T03:56:27;7.47;;;5.32;;
82304;SDS011;71914;47.382;8.168;2023-09-07T03:58:52;7.43;;;5.13;;
82304;SDS011;71914;47.382;8.168;2023-09-07T04:01:18;8.13;;;5.57;;
82304;SDS011;71914;47.382;8.168;2023-09-07T04:03:43;7.90;;;5.32;;
82304;SDS011;71914;47.382;8.168;2023-09-07T04:06:09;8.32;;;5.57;;
82304;SDS011;71914;47.382;8.168;2023-09-07T04:08:34;9.68;;;5.63;;
82304;SDS011;71914;47.382;8.168;2023-09-07T04:11:03;10.27;;;5.93;;
82304;SDS011;71914;47.382;8.168;2023-09-07T04:13:30;10.70;;;5.68;;
82304;SDS011;71914;47.382;8.168;2023-09-07T04:15:56;10.63;;;6.40;;
82304;SDS011;71914;47.382;8.168;2023-09-07T04:18:21;8.60;;;5.88;;
82304;SDS011;71914;47.382;8.168;2023-09-07T04:20:47;9.80;;;5.70;;
82304;SDS011;71914;47.382;8.168;2023-09-07T04:23:12;7.25;;;5.40;;
82304;SDS011;71914;47.382;8.168;2023-09-07T04:25:38;9.60;;;5.22;;
82304;SDS011;71914;47.382;8.168;2023-09-07T04:28:06;8.07;;;5.30;;
82304;SDS011;71914;47.382;8.168;2023-09-07T04:30:36;6.80;;;4.82;;
82304;SDS011;71914;47.382;8.168;2023-09-07T04:33:02;6.95;;;4.90;;
82304;SDS011;71914;47.382;8.168;2023-09-07T04:35:28;7.32;;;4.75;;
82304;SDS011;71914;47.382;8.168;2023-09-07T04:37:55;8.00;;;4.63;;
82304;SDS011;71914;47.382;8.168;2023-09-07T04:40:21;6.70;;;5.47;;
82304;SDS011;71914;47.382;8.168;2023-09-07T04:42:47;7.30;;;4.50;;
82304;SDS011;71914;47.382;8.168;2023-09-07T04:45:12;5.90;;;4.80;;
82304;SDS011;71914;47.382;8.168;2023-09-07T04:47:39;8.05;;;4.78;;
82304;SDS011;71914;47.382;8.168;2023-09-07T04:50:05;7.10;;;4.57;;
82304;SDS011;71914;47.382;8.168;2023-09-07T04:52:31;6.45;;;4.93;;
82304;SDS011;71914;47.382;8.168;2023-09-07T04:54:57;6.43;;;4.55;;
82304;SDS011;71914;47.382;8.168;2023-09-07T04:57:26;6.45;;;4.45;;
82304;SDS011;71914;47.382;8.168;2023-09-07T04:59:52;8.00;;;4.43;;
82304;SDS011;71914;47.382;8.168;2023-09-07T05:02:18;5.25;;;4.13;;
82304;SDS011;71914;47.382;8.168;2023-09-07T05:04:45;5.25;;;4.38;;
82304;SDS011;71914;47.382;8.168;2023-09-07T05:07:10;7.80;;;5.15;;
82304;SDS011;71914;47.382;8.168;2023-09-07T05:09:36;6.72;;;4.75;;
82304;SDS011;71914;47.382;8.168;2023-09-07T05:12:01;6.88;;;4.65;;
82304;SDS011;71914;47.382;8.168;2023-09-07T05:14:27;7.07;;;4.78;;
82304;SDS011;71914;47.382;8.168;2023-09-07T05:19:21;7.10;;;4.90;;
82304;SDS011;71914;47.382;8.168;2023-09-07T05:21:48;7.13;;;4.90;;
82304;SDS011;71914;47.382;8.168;2023-09-07T05:24:14;8.48;;;4.57;;
82304;SDS011;71914;47.382;8.168;2023-09-07T05:26:43;9.05;;;4.50;;
82304;SDS011;71914;47.382;8.168;2023-09-07T05:29:08;6.07;;;4.95;;
82304;SDS011;71914;47.382;8.168;2023-09-07T05:31:34;6.07;;;5.00;;
82304;SDS011;71914;47.382;8.168;2023-09-07T05:34:00;7.97;;;5.18;;
82304;SDS011;71914;47.382;8.168;2023-09-07T05:36:26;8.38;;;5.10;;
82304;SDS011;71914;47.382;8.168;2023-09-07T05:38:53;7.35;;;5.15;;
82304;SDS011;71914;47.382;8.168;2023-09-07T05:41:19;11.02;;;5.40;;
82304;SDS011;71914;47.382;8.168;2023-09-07T05:43:44;7.63;;;4.72;;
82304;SDS011;71914;47.382;8.168;2023-09-07T05:46:10;12.85;;;5.90;;
82304;SDS011;71914;47.382;8.168;2023-09-07T05:48:35;9.05;;;4.85;;
82304;SDS011;71914;47.382;8.168;2023-09-07T05:51:01;6.30;;;4.95;;
82304;SDS011;71914;47.382;8.168;2023-09-07T05:53:31;12.27;;;5.20;;
82304;SDS011;71914;47.382;8.168;2023-09-07T05:55:58;7.60;;;5.53;;
82304;SDS011;71914;47.382;8.168;2023-09-07T05:58:23;7.53;;;4.88;;
82304;SDS011;71914;47.382;8.168;2023-09-07T06:00:49;7.40;;;5.07;;
82304;SDS011;71914;47.382;8.168;2023-09-07T06:03:14;7.05;;;4.65;;
82304;SDS011;71914;47.382;8.168;2023-09-07T06:05:40;6.95;;;5.18;;
82304;SDS011;71914;47.382;8.168;2023-09-07T06:08:05;7.93;;;5.10;;
82304;SDS011;71914;47.382;8.168;2023-09-07T06:10:31;7.65;;;5.60;;
82304;SDS011;71914;47.382;8.168;2023-09-07T06:12:58;7.20;;;5.45;;
82304;SDS011;71914;47.382;8.168;2023-09-07T06:15:25;8.48;;;5.57;;
82304;SDS011;71914;47.382;8.168;2023-09-07T06:17:52;6.93;;;4.55;;
82304;SDS011;71914;47.382;8.168;2023-09-07T06:20:17;8.55;;;5.53;;
82304;SDS011;71914;47.382;8.168;2023-09-07T06:22:44;6.03;;;4.65;;
82304;SDS011;71914;47.382;8.168;2023-09-07T06:25:10;9.02;;;5.68;;
82304;SDS011;71914;47.382;8.168;2023-09-07T06:27:35;9.50;;;5.40;;
82304;SDS011;71914;47.382;8.168;2023-09-07T06:30:02;7.80;;;5.28;;
82304;SDS011;71914;47.382;8.168;2023-09-07T06:32:29;8.48;;;4.88;;
82304;SDS011;71914;47.382;8.168;2023-09-07T06:34:54;7.65;;;4.80;;
82304;SDS011;71914;47.382;8.168;2023-09-07T06:37:20;11.30;;;5.55;;
82304;SDS011;71914;47.382;8.168;2023-09-07T06:39:45;7.28;;;5.18;;
82304;SDS011;71914;47.382;8.168;2023-09-07T06:42:11;5.75;;;4.65;;
82304;SDS011;71914;47.382;8.168;2023-09-07T06:44:36;10.18;;;6.18;;
82304;SDS011;71914;47.382;8.168;2023-09-07T06:47:03;7.30;;;5.28;;
82304;SDS011;71914;47.382;8.168;2023-09-07T06:49:29;8.07;;;5.63;;
82304;SDS011;71914;47.382;8.168;2023-09-07T06:51:54;8.27;;;4.93;;
82304;SDS011;71914;47.382;8.168;2023-09-07T06:54:20;8.43;;;5.00;;
82304;SDS011;71914;47.382;8.168;2023-09-07T06:56:45;8.18;;;4.68;;
82304;SDS011;71914;47.382;8.168;2023-09-07T06:59:11;7.80;;;4.57;;
82304;SDS011;71914;47.382;8.168;2023-09-07T07:01:36;9.40;;;4.95;;
82304;SDS011;71914;47.382;8.168;2023-09-07T07:04:04;6.45;;;5.13;;
82304;SDS011;71914;47.382;8.168;2023-09-07T07:06:29;9.38;;;4.90;;
82304;SDS011;71914;47.382;8.168;2023-09-07T07:08:55;6.95;;;4.93;;
82304;SDS011;71914;47.382;8.168;2023-09-07T07:11:20;8.90;;;4.70;;
82304;SDS011;71914;47.382;8.168;2023-09-07T07:13:46;6.78;;;4.28;;
82304;SDS011;71914;47.382;8.168;2023-09-07T07:16:11;6.72;;;4.15;;
82304;SDS011;71914;47.382;8.168;2023-09-07T07:18:37;12.98;;;5.38;;
82304;SDS011;71914;47.382;8.168;2023-09-07T07:21:04;7.03;;;5.10;;
82304;SDS011;71914;47.382;8.168;2023-09-07T07:23:29;10.93;;;5.07;;
82304;SDS011;71914;47.382;8.168;2023-09-07T07:25:55;7.95;;;5.20;;
82304;SDS011;71914;47.382;8.168;2023-09-07T07:28:21;7.03;;;4.82;;
82304;SDS011;71914;47.382;8.168;2023-09-07T07:30:46;11.82;;;5.15;;
82304;SDS011;71914;47.382;8.168;2023-09-07T07:33:13;10.75;;;5.00;;
82304;SDS011;71914;47.382;8.168;2023-09-07T07:35:38;7.40;;;4.72;;
82304;SDS011;71914;47.382;8.168;2023-09-07T07:38:05;6.93;;;4.55;;
82304;SDS011;71914;47.382;8.168;2023-09-07T07:40:33;7.75;;;4.53;;
82304;SDS011;71914;47.382;8.168;2023-09-07T07:42:59;6.40;;;4.60;;
82304;SDS011;71914;47.382;8.168;2023-09-07T07:45:25;6.45;;;4.57;;
82304;SDS011;71914;47.382;8.168;2023-09-07T07:47:50;7.80;;;4.50;;
82304;SDS011;71914;47.382;8.168;2023-09-07T07:50:16;6.88;;;4.90;;
82304;SDS011;71914;47.382;8.168;2023-09-07T07:52:42;6.70;;;4.63;;
82304;SDS011;71914;47.382;8.168;2023-09-07T07:55:10;7.80;;;4.80;;
82304;SDS011;71914;47.382;8.168;2023-09-07T07:57:36;8.30;;;4.05;;
82304;SDS011;71914;47.382;8.168;2023-09-07T08:00:02;11.45;;;5.22;;
82304;SDS011;71914;47.382;8.168;2023-09-07T08:02:29;7.43;;;5.00;;
82304;SDS011;71914;47.382;8.168;2023-09-07T08:04:54;9.15;;;4.65;;
82304;SDS011;71914;47.382;8.168;2023-09-07T08:07:20;6.75;;;4.47;;
82304;SDS011;71914;47.382;8.168;2023-09-07T08:09:45;6.30;;;4.55;;
82304;SDS011;71914;47.382;8.168;2023-09-07T08:12:12;8.23;;;4.20;;
82304;SDS011;71914;47.382;8.168;2023-09-07T08:14:38;7.97;;;4.85;;
82304;SDS011;71914;47.382;8.168;2023-09-07T08:17:03;8.48;;;4.55;;
82304;SDS011;71914;47.382;8.168;2023-09-07T08:19:29;9.68;;;5.43;;
82304;SDS011;71914;47.382;8.168;2023-09-07T08:21:54;7.95;;;5.22;;
82304;SDS011;71914;47.382;8.168;2023-09-07T08:24:20;8.90;;;4.65;;
82304;SDS011;71914;47.382;8.168;2023-09-07T08:26:46;8.55;;;4.65;;
82304;SDS011;71914;47.382;8.168;2023-09-07T08:29:17;6.43;;;4.35;;
82304;SDS011;71914;47.382;8.168;2023-09-07T08:31:45;5.88;;;4.45;;
82304;SDS011;71914;47.382;8.168;2023-09-07T08:34:13;8.18;;;4.97;;
82304;SDS011;71914;47.382;8.168;2023-09-07T08:36:40;6.00;;;4.50;;
82304;SDS011;71914;47.382;8.168;2023-09-07T08:39:06;5.70;;;4.30;;
82304;SDS011;71914;47.382;8.168;2023-09-07T08:41:36;5.65;;;3.85;;
82304;SDS011;71914;47.382;8.168;2023-09-07T08:44:06;6.05;;;4.80;;
82304;SDS011;71914;47.382;8.168;2023-09-07T08:46:35;7.63;;;4.40;;
82304;SDS011;71914;47.382;8.168;2023-09-07T08:49:02;6.45;;;4.25;;
82304;SDS011;71914;47.382;8.168;2023-09-07T08:51:29;8.07;;;4.82;;
82304;SDS011;71914;47.382;8.168;2023-09-07T08:53:56;8.48;;;5.25;;
82304;SDS011;71914;47.382;8.168;2023-09-07T08:56:22;5.55;;;4.63;;
82304;SDS011;71914;47.382;8.168;2023-09-07T08:58:48;8.77;;;5.40;;
82304;SDS011;71914;47.382;8.168;2023-09-07T09:01:16;6.03;;;4.50;;
82304;SDS011;71914;47.382;8.168;2023-09-07T09:03:43;6.90;;;5.22;;
82304;SDS011;71914;47.382;8.168;2023-09-07T09:06:09;8.35;;;5.20;;
82304;SDS011;71914;47.382;8.168;2023-09-07T09:08:42;6.30;;;4.47;;
82304;SDS011;71914;47.382;8.168;2023-09-07T09:11:08;8.80;;;4.80;;
82304;SDS011;71914;47.382;8.168;2023-09-07T09:13:34;7.68;;;5.07;;
82304;SDS011;71914;47.382;8.168;2023-09-07T09:15:59;7.95;;;5.30;;
82304;SDS011;71914;47.382;8.168;2023-09-07T09:18:28;9.25;;;5.68;;
82304;SDS011;71914;47.382;8.168;2023-09-07T09:23:21;6.00;;;4.22;;
82304;SDS011;71914;47.382;8.168;2023-09-07T09:25:47;7.15;;;4.72;;
82304;SDS011;71914;47.382;8.168;2023-09-07T09:30:38;9.57;;;5.30;;
82304;SDS011;71914;47.382;8.168;2023-09-07T09:33:04;7.40;;;5.22;;
82304;SDS011;71914;47.382;8.168;2023-09-07T09:35:30;6.00;;;4.97;;
82304;SDS011;71914;47.382;8.168;2023-09-07T09:38:00;7.07;;;5.30;;
82304;SDS011;71914;47.382;8.168;2023-09-07T09:40:29;8.13;;;5.70;;
82304;SDS011;71914;47.382;8.168;2023-09-07T09:42:55;11.05;;;5.38;;
82304;SDS011;71914;47.382;8.168;2023-09-07T09:45:23;7.95;;;5.40;;
82304;SDS011;71914;47.382;8.168;2023-09-07T09:47:51;6.60;;;4.68;;
82304;SDS011;71914;47.382;8.168;2023-09-07T09:50:19;8.07;;;6.93;;
82304;SDS011;71914;47.382;8.168;2023-09-07T09:55:12;7.95;;;5.32;;
82304;SDS011;71914;47.382;8.168;2023-09-07T09:57:38;6.65;;;5.15;;
82304;SDS011;71914;47.382;8.168;2023-09-07T10:02:42;7.93;;;5.15;;
82304;SDS011;71914;47.382;8.168;2023-09-07T10:05:09;6.50;;;4.85;;
82304;SDS011;71914;47.382;8.168;2023-09-07T10:07:42;8.68;;;5.45;;
82304;SDS011;71914;47.382;8.168;2023-09-07T10:10:13;7.18;;;5.10;;
82304;SDS011;71914;47.382;8.168;2023-09-07T10:12:42;6.13;;;4.47;;
82304;SDS011;71914;47.382;8.168;2023-09-07T10:17:44;8.43;;;5.80;;
82304;SDS011;71914;47.382;8.168;2023-09-07T10:20:11;8.70;;;5.32;;
82304;SDS011;71914;47.382;8.168;2023-09-07T10:22:37;5.30;;;4.60;;
82304;SDS011;71914;47.382;8.168;2023-09-07T10:27:37;10.27;;;5.32;;
82304;SDS011;71914;47.382;8.168;2023-09-07T10:30:07;5.90;;;4.97;;
82304;SDS011;71914;47.382;8.168;2023-09-07T10:32:37;7.22;;;5.95;;
82304;SDS011;71914;47.382;8.168;2023-09-07T10:35:06;11.05;;;5.70;;
82304;SDS011;71914;47.382;8.168;2023-09-07T10:37:37;7.80;;;5.20;;
82304;SDS011;71914;47.382;8.168;2023-09-07T10:40:04;8.27;;;5.22;;
82304;SDS011;71914;47.382;8.168;2023-09-07T10:42:38;5.03;;;4.50;;
82304;SDS011;71914;47.382;8.168;2023-09-07T10:45:10;7.72;;;5.80;;
82304;SDS011;71914;47.382;8.168;2023-09-07T10:47:39;11.25;;;4.97;;
82304;SDS011;71914;47.382;8.168;2023-09-07T10:50:06;8.95;;;5.18;;
82304;SDS011;71914;47.382;8.168;2023-09-07T10:54:58;9.70;;;5.57;;
82304;SDS011;71914;47.382;8.168;2023-09-07T10:59:50;8.13;;;5.10;;
82304;SDS011;71914;47.382;8.168;2023-09-07T11:02:20;5.82;;;5.22;;
82304;SDS011;71914;47.382;8.168;2023-09-07T11:07:11;8.38;;;4.85;;
82304;SDS011;71914;47.382;8.168;2023-09-07T11:09:39;13.02;;;5.53;;
82304;SDS011;71914;47.382;8.168;2023-09-07T11:12:05;10.63;;;5.47;;
82304;SDS011;71914;47.382;8.168;2023-09-07T11:14:32;6.32;;;4.70;;
82304;SDS011;71914;47.382;8.168;2023-09-07T11:19:31;11.52;;;5.03;;
82304;SDS011;71914;47.382;8.168;2023-09-07T11:21:57;8.60;;;4.88;;
82304;SDS011;71914;47.382;8.168;2023-09-07T11:26:49;6.38;;;5.55;;
82304;SDS011;71914;47.382;8.168;2023-09-07T11:31:40;7.45;;;4.72;;
82304;SDS011;71914;47.382;8.168;2023-09-07T11:34:09;11.63;;;5.53;;
82304;SDS011;71914;47.382;8.168;2023-09-07T11:36:35;7.47;;;5.28;;
82304;SDS011;71914;47.382;8.168;2023-09-07T11:39:01;8.32;;;5.50;;
82304;SDS011;71914;47.382;8.168;2023-09-07T11:41:33;8.73;;;5.45;;
82304;SDS011;71914;47.382;8.168;2023-09-07T11:43:59;11.70;;;6.13;;
82304;SDS011;71914;47.382;8.168;2023-09-07T11:46:24;6.80;;;5.15;;
82304;SDS011;71914;47.382;8.168;2023-09-07T11:48:50;8.35;;;5.47;;
82304;SDS011;71914;47.382;8.168;2023-09-07T11:53:42;5.72;;;4.35;;
82304;SDS011;71914;47.382;8.168;2023-09-07T11:56:07;8.77;;;5.20;;
82304;SDS011;71914;47.382;8.168;2023-09-07T11:58:33;7.78;;;4.80;;
82304;SDS011;71914;47.382;8.168;2023-09-07T12:00:58;9.63;;;5.88;;
82304;SDS011;71914;47.382;8.168;2023-09-07T12:03:24;6.90;;;4.72;;
82304;SDS011;71914;47.382;8.168;2023-09-07T12:05:49;8.32;;;5.30;;
82304;SDS011;71914;47.382;8.168;2023-09-07T12:08:16;10.80;;;4.93;;
82304;SDS011;71914;47.382;8.168;2023-09-07T12:10:42;9.43;;;4.68;;
82304;SDS011;71914;47.382;8.168;2023-09-07T12:13:07;6.30;;;4.45;;
82304;SDS011;71914;47.382;8.168;2023-09-07T12:15:33;7.32;;;5.28;;
82304;SDS011;71914;47.382;8.168;2023-09-07T12:18:00;11.73;;;5.40;;
82304;SDS011;71914;47.382;8.168;2023-09-07T12:20:25;6.78;;;4.55;;
82304;SDS011;71914;47.382;8.168;2023-09-07T12:22:51;4.57;;;4.10;;
82304;SDS011;71914;47.382;8.168;2023-09-07T12:25:18;7.38;;;4.63;;
82304;SDS011;71914;47.382;8.168;2023-09-07T12:27:44;5.75;;;4.20;;
82304;SDS011;71914;47.382;8.168;2023-09-07T12:30:10;6.63;;;4.55;;
82304;SDS011;71914;47.382;8.168;2023-09-07T12:32:38;7.80;;;4.28;;
82304;SDS011;71914;47.382;8.168;2023-09-07T12:35:04;6.72;;;4.65;;
82304;SDS011;71914;47.382;8.168;2023-09-07T12:37:33;5.53;;;4.38;;
82304;SDS011;71914;47.382;8.168;2023-09-07T12:39:59;6.18;;;4.38;;
82304;SDS011;71914;47.382;8.168;2023-09-07T12:42:26;5.80;;;4.45;;
82304;SDS011;71914;47.382;8.168;2023-09-07T12:44:51;4.82;;;4.25;;
82304;SDS011;71914;47.382;8.168;2023-09-07T12:47:17;5.80;;;4.32;;
82304;SDS011;71914;47.382;8.168;2023-09-07T12:49:42;6.25;;;4.60;;
82304;SDS011;71914;47.382;8.168;2023-09-07T12:52:08;6.25;;;4.57;;
82304;SDS011;71914;47.382;8.168;2023-09-07T12:54:34;6.93;;;3.95;;
82304;SDS011;71914;47.382;8.168;2023-09-07T12:57:00;7.07;;;4.15;;
82304;SDS011;71914;47.382;8.168;2023-09-07T12:59:28;7.70;;;5.03;;
82304;SDS011;71914;47.382;8.168;2023-09-07T13:01:53;9.05;;;4.72;;
82304;SDS011;71914;47.382;8.168;2023-09-07T13:04:21;9.63;;;4.60;;
82304;SDS011;71914;47.382;8.168;2023-09-07T13:06:46;8.52;;;4.05;;
82304;SDS011;71914;47.382;8.168;2023-09-07T13:09:12;6.72;;;3.97;;
82304;SDS011;71914;47.382;8.168;2023-09-07T13:11:38;7.85;;;4.35;;
82304;SDS011;71914;47.382;8.168;2023-09-07T13:14:04;8.07;;;4.07;;
82304;SDS011;71914;47.382;8.168;2023-09-07T13:16:31;6.57;;;3.97;;
82304;SDS011;71914;47.382;8.168;2023-09-07T13:18:57;4.47;;;3.80;;
82304;SDS011;71914;47.382;8.168;2023-09-07T13:21:23;9.52;;;3.88;;
82304;SDS011;71914;47.382;8.168;2023-09-07T13:23:49;6.25;;;3.97;;
82304;SDS011;71914;47.382;8.168;2023-09-07T13:26:14;5.00;;;3.90;;
82304;SDS011;71914;47.382;8.168;2023-09-07T13:28:40;6.60;;;3.83;;
82304;SDS011;71914;47.382;8.168;2023-09-07T13:31:06;4.95;;;3.75;;
82304;SDS011;71914;47.382;8.168;2023-09-07T13:33:33;6.20;;;3.45;;
82304;SDS011;71914;47.382;8.168;2023-09-07T13:35:58;5.00;;;4.10;;
82304;SDS011;71914;47.382;8.168;2023-09-07T13:38:24;4.72;;;3.40;;
82304;SDS011;71914;47.382;8.168;2023-09-07T13:40:49;6.88;;;4.28;;
82304;SDS011;71914;47.382;8.168;2023-09-07T13:43:15;5.95;;;3.67;;
82304;SDS011;71914;47.382;8.168;2023-09-07T13:45:40;4.82;;;3.85;;
82304;SDS011;71914;47.382;8.168;2023-09-07T13:48:06;4.50;;;4.00;;
82304;SDS011;71914;47.382;8.168;2023-09-07T13:50:33;8.80;;;4.40;;
82304;SDS011;71914;47.382;8.168;2023-09-07T13:52:58;6.13;;;4.00;;
82304;SDS011;71914;47.382;8.168;2023-09-07T13:55:24;12.75;;;5.40;;
82304;SDS011;71914;47.382;8.168;2023-09-07T13:57:50;4.90;;;4.10;;
82304;SDS011;71914;47.382;8.168;2023-09-07T14:00:16;7.10;;;3.75;;
82304;SDS011;71914;47.382;8.168;2023-09-07T14:02:41;7.00;;;3.92;;
82304;SDS011;71914;47.382;8.168;2023-09-07T14:05:07;5.78;;;4.00;;
82304;SDS011;71914;47.382;8.168;2023-09-07T14:07:34;6.57;;;4.35;;
82304;SDS011;71914;47.382;8.168;2023-09-07T14:10:00;5.90;;;4.00;;
82304;SDS011;71914;47.382;8.168;2023-09-07T14:12:26;6.68;;;3.80;;
82304;SDS011;71914;47.382;8.168;2023-09-07T14:14:52;7.25;;;4.40;;
82304;SDS011;71914;47.382;8.168;2023-09-07T14:17:17;6.60;;;4.38;;
82304;SDS011;71914;47.382;8.168;2023-09-07T14:19:43;5.78;;;4.07;;
82304;SDS011;71914;47.382;8.168;2023-09-07T14:22:10;5.13;;;3.80;;
82304;SDS011;71914;47.382;8.168;2023-09-07T14:24:37;6.80;;;3.83;;
82304;SDS011;71914;47.382;8.168;2023-09-07T14:27:03;3.85;;;3.38;;
82304;SDS011;71914;47.382;8.168;2023-09-07T14:29:29;4.93;;;3.40;;
82304;SDS011;71914;47.382;8.168;2023-09-07T14:31:54;5.53;;;3.33;;
82304;SDS011;71914;47.382;8.168;2023-09-07T14:34:20;7.55;;;3.65;;
82304;SDS011;71914;47.382;8.168;2023-09-07T14:36:45;5.53;;;3.90;;
82304;SDS011;71914;47.382;8.168;2023-09-07T14:39:11;5.22;;;3.65;;
82304;SDS011;71914;47.382;8.168;2023-09-07T14:41:39;7.72;;;4.22;;
82304;SDS011;71914;47.382;8.168;2023-09-07T14:44:05;6.45;;;3.50;;
82304;SDS011;71914;47.382;8.168;2023-09-07T14:46:31;4.15;;;2.90;;
82304;SDS011;71914;47.382;8.168;2023-09-07T14:48:57;4.47;;;3.38;;
82304;SDS011;71914;47.382;8.168;2023-09-07T14:51:22;5.20;;;3.63;;
82304;SDS011;71914;47.382;8.168;2023-09-07T14:53:48;5.88;;;3.50;;
82304;SDS011;71914;47.382;8.168;2023-09-07T14:56:14;4.78;;;2.95;;
82304;SDS011;71914;47.382;8.168;2023-09-07T14:58:40;5.63;;;3.80;;
82304;SDS011;71914;47.382;8.168;2023-09-07T15:01:06;6.68;;;3.45;;
82304;SDS011;71914;47.382;8.168;2023-09-07T15:03:32;6.55;;;3.22;;
82304;SDS011;71914;47.382;8.168;2023-09-07T15:05:58;4.05;;;3.53;;
82304;SDS011;71914;47.382;8.168;2023-09-07T15:08:23;7.38;;;3.50;;
82304;SDS011;71914;47.382;8.168;2023-09-07T15:10:49;3.88;;;3.10;;
82304;SDS011;71914;47.382;8.168;2023-09-07T15:13:15;4.00;;;3.25;;
82304;SDS011;71914;47.382;8.168;2023-09-07T15:15:42;5.32;;;3.15;;
82304;SDS011;71914;47.382;8.168;2023-09-07T15:18:07;6.20;;;3.70;;